sensor_id;sensor_type;location;lat;lon;timestamp;P1;durP1;ratioP1;P2;durP2;ratioP2
57551;SDS011;43379;48.160;14.036;2023-02-28T00:02:07;8.17;;;6.23;;
57551;SDS011;43379;48.160;14.036;2023-02-28T00:04:33;7.83;;;7.13;;
57551;SDS011;43379;48.160;14.036;2023-02-28T00:06:59;8.37;;;7.57;;
57551;SDS011;43379;48.160;14.036;2023-02-28T00:09:24;8.07;;;7.40;;
57551;SDS011;43379;48.160;14.036;2023-02-28T00:11:50;9.00;;;7.20;;
57551;SDS011;43379;48.160;14.036;2023-02-28T00:14:15;11.47;;;7.73;;
57551;SDS011;43379;48.160;14.036;2023-02-28T00:16:42;7.40;;;6.60;;
57551;SDS011;43379;48.160;14.036;2023-02-28T00:19:08;8.90;;;8.00;;
57551;SDS011;43379;48.160;14.036;2023-02-28T00:21:34;8.83;;;7.40;;
57551;SDS011;43379;48.160;14.036;2023-02-28T00:24:00;9.47;;;8.40;;
57551;SDS011;43379;48.160;14.036;2023-02-28T00:26:26;8.43;;;7.60;;
57551;SDS011;43379;48.160;14.036;2023-02-28T00:28:52;9.83;;;8.33;;
57551;SDS011;43379;48.160;14.036;2023-02-28T00:31:18;9.77;;;8.37;;
57551;SDS011;43379;48.160;14.036;2023-02-28T00:33:43;9.77;;;8.87;;
57551;SDS011;43379;48.160;14.036;2023-02-28T00:36:10;9.17;;;8.27;;
57551;SDS011;43379;48.160;14.036;2023-02-28T00:38:36;11.93;;;9.37;;
57551;SDS011;43379;48.160;14.036;2023-02-28T00:41:02;10.10;;;9.10;;
57551;SDS011;43379;48.160;14.036;2023-02-28T00:43:34;12.03;;;9.10;;
57551;SDS011;43379;48.160;14.036;2023-02-28T00:46:02;11.07;;;10.00;;
57551;SDS011;43379;48.160;14.036;2023-02-28T00:48:28;10.27;;;9.37;;
57551;SDS011;43379;48.160;14.036;2023-02-28T00:50:54;13.27;;;10.10;;
57551;SDS011;43379;48.160;14.036;2023-02-28T00:53:20;12.30;;;9.93;;
57551;SDS011;43379;48.160;14.036;2023-02-28T00:55:47;11.87;;;9.63;;
57551;SDS011;43379;48.160;14.036;2023-02-28T00:58:13;12.93;;;9.43;;
57551;SDS011;43379;48.160;14.036;2023-02-28T01:00:39;10.80;;;9.20;;
57551;SDS011;43379;48.160;14.036;2023-02-28T01:03:04;13.47;;;9.83;;
57551;SDS011;43379;48.160;14.036;2023-02-28T01:05:30;10.70;;;9.60;;
57551;SDS011;43379;48.160;14.036;2023-02-28T01:07:55;12.57;;;10.20;;
57551;SDS011;43379;48.160;14.036;2023-02-28T01:10:21;8.87;;;7.97;;
57551;SDS011;43379;48.160;14.036;2023-02-28T01:12:47;14.00;;;11.30;;
57551;SDS011;43379;48.160;14.036;2023-02-28T01:15:12;10.90;;;9.67;;
57551;SDS011;43379;48.160;14.036;2023-02-28T01:17:38;16.80;;;12.13;;
57551;SDS011;43379;48.160;14.036;2023-02-28T01:20:04;11.60;;;10.07;;
57551;SDS011;43379;48.160;14.036;2023-02-28T01:22:30;10.73;;;9.10;;
57551;SDS011;43379;48.160;14.036;2023-02-28T01:24:55;11.73;;;9.93;;
57551;SDS011;43379;48.160;14.036;2023-02-28T01:27:21;11.07;;;9.90;;
57551;SDS011;43379;48.160;14.036;2023-02-28T01:29:46;13.23;;;10.53;;
57551;SDS011;43379;48.160;14.036;2023-02-28T01:32:12;13.77;;;10.93;;
57551;SDS011;43379;48.160;14.036;2023-02-28T01:34:38;11.40;;;10.40;;
57551;SDS011;43379;48.160;14.036;2023-02-28T01:37:04;15.37;;;11.30;;
57551;SDS011;43379;48.160;14.036;2023-02-28T01:39:29;11.07;;;9.90;;
57551;SDS011;43379;48.160;14.036;2023-02-28T01:41:55;11.37;;;10.17;;
57551;SDS011;43379;48.160;14.036;2023-02-28T01:47:25;12.53;;;10.90;;
57551;SDS011;43379;48.160;14.036;2023-02-28T01:49:54;11.10;;;9.87;;
57551;SDS011;43379;48.160;14.036;2023-02-28T01:52:20;11.90;;;10.63;;
57551;SDS011;43379;48.160;14.036;2023-02-28T01:54:49;12.80;;;10.57;;
57551;SDS011;43379;48.160;14.036;2023-02-28T01:57:18;10.43;;;9.33;;
57551;SDS011;43379;48.160;14.036;2023-02-28T01:59:47;11.97;;;9.70;;
57551;SDS011;43379;48.160;14.036;2023-02-28T02:02:23;14.13;;;9.67;;
57551;SDS011;43379;48.160;14.036;2023-02-28T02:04:51;11.67;;;10.20;;
57551;SDS011;43379;48.160;14.036;2023-02-28T02:07:40;12.13;;;10.80;;
57551;SDS011;43379;48.160;14.036;2023-02-28T02:18:39;13.20;;;10.93;;
57551;SDS011;43379;48.160;14.036;2023-02-28T02:43:18;12.73;;;11.23;;
57551;SDS011;43379;48.160;14.036;2023-02-28T02:45:49;16.40;;;12.27;;
57551;SDS011;43379;48.160;14.036;2023-02-28T02:48:25;13.97;;;12.27;;
57551;SDS011;43379;48.160;14.036;2023-02-28T02:50:55;15.73;;;12.10;;
57551;SDS011;43379;48.160;14.036;2023-02-28T02:53:32;15.20;;;13.07;;
57551;SDS011;43379;48.160;14.036;2023-02-28T02:56:02;15.73;;;11.57;;
57551;SDS011;43379;48.160;14.036;2023-02-28T02:58:31;14.83;;;12.37;;
57551;SDS011;43379;48.160;14.036;2023-02-28T03:01:01;13.33;;;10.70;;
57551;SDS011;43379;48.160;14.036;2023-02-28T03:03:28;15.20;;;12.37;;
57551;SDS011;43379;48.160;14.036;2023-02-28T03:05:56;16.57;;;11.50;;
57551;SDS011;43379;48.160;14.036;2023-02-28T03:08:23;14.33;;;12.80;;
57551;SDS011;43379;48.160;14.036;2023-02-28T03:10:55;16.43;;;13.03;;
57551;SDS011;43379;48.160;14.036;2023-02-28T03:16:33;14.60;;;11.67;;
57551;SDS011;43379;48.160;14.036;2023-02-28T03:27:24;13.63;;;11.87;;
57551;SDS011;43379;48.160;14.036;2023-02-28T03:30:15;13.43;;;11.37;;
57551;SDS011;43379;48.160;14.036;2023-02-28T03:32:45;14.73;;;12.03;;
57551;SDS011;43379;48.160;14.036;2023-02-28T03:35:34;18.83;;;13.60;;
57551;SDS011;43379;48.160;14.036;2023-02-28T03:38:10;15.70;;;12.20;;
57551;SDS011;43379;48.160;14.036;2023-02-28T03:41:05;14.40;;;11.67;;
57551;SDS011;43379;48.160;14.036;2023-02-28T03:43:35;14.20;;;12.40;;
57551;SDS011;43379;48.160;14.036;2023-02-28T03:46:06;14.90;;;12.23;;
57551;SDS011;43379;48.160;14.036;2023-02-28T03:48:37;16.30;;;11.40;;
57551;SDS011;43379;48.160;14.036;2023-02-28T03:51:10;14.33;;;12.33;;
57551;SDS011;43379;48.160;14.036;2023-02-28T03:53:43;13.90;;;12.40;;
57551;SDS011;43379;48.160;14.036;2023-02-28T03:56:19;16.37;;;12.67;;
57551;SDS011;43379;48.160;14.036;2023-02-28T03:58:54;15.47;;;13.10;;
57551;SDS011;43379;48.160;14.036;2023-02-28T04:01:25;15.13;;;12.97;;
57551;SDS011;43379;48.160;14.036;2023-02-28T04:03:57;17.83;;;13.80;;
57551;SDS011;43379;48.160;14.036;2023-02-28T04:06:23;20.57;;;14.83;;
57551;SDS011;43379;48.160;14.036;2023-02-28T04:08:49;20.13;;;14.83;;
57551;SDS011;43379;48.160;14.036;2023-02-28T04:11:23;15.27;;;12.77;;
57551;SDS011;43379;48.160;14.036;2023-02-28T04:14:00;14.33;;;12.83;;
57551;SDS011;43379;48.160;14.036;2023-02-28T04:16:27;13.13;;;11.83;;
57551;SDS011;43379;48.160;14.036;2023-02-28T04:18:53;12.87;;;11.47;;
57551;SDS011;43379;48.160;14.036;2023-02-28T04:21:26;12.47;;;11.13;;
57551;SDS011;43379;48.160;14.036;2023-02-28T04:23:58;13.40;;;10.97;;
57551;SDS011;43379;48.160;14.036;2023-02-28T04:26:27;12.97;;;11.53;;
57551;SDS011;43379;48.160;14.036;2023-02-28T04:28:55;12.07;;;10.70;;
57551;SDS011;43379;48.160;14.036;2023-02-28T04:31:21;12.23;;;10.93;;
57551;SDS011;43379;48.160;14.036;2023-02-28T04:33:46;13.00;;;11.77;;
57551;SDS011;43379;48.160;14.036;2023-02-28T04:36:12;14.07;;;12.07;;
57551;SDS011;43379;48.160;14.036;2023-02-28T04:38:39;16.20;;;12.60;;
57551;SDS011;43379;48.160;14.036;2023-02-28T04:41:05;12.93;;;11.30;;
57551;SDS011;43379;48.160;14.036;2023-02-28T04:43:31;12.93;;;10.60;;
57551;SDS011;43379;48.160;14.036;2023-02-28T04:45:58;12.97;;;11.03;;
57551;SDS011;43379;48.160;14.036;2023-02-28T04:48:30;15.63;;;11.27;;
57551;SDS011;43379;48.160;14.036;2023-02-28T04:51:01;13.00;;;10.73;;
57551;SDS011;43379;48.160;14.036;2023-02-28T04:53:28;18.97;;;12.50;;
57551;SDS011;43379;48.160;14.036;2023-02-28T04:55:54;12.57;;;11.23;;
57551;SDS011;43379;48.160;14.036;2023-02-28T04:58:20;13.87;;;11.50;;
57551;SDS011;43379;48.160;14.036;2023-02-28T05:00:48;12.40;;;11.10;;
57551;SDS011;43379;48.160;14.036;2023-02-28T05:03:15;15.10;;;11.20;;
57551;SDS011;43379;48.160;14.036;2023-02-28T05:05:41;15.83;;;11.20;;
57551;SDS011;43379;48.160;14.036;2023-02-28T05:08:06;13.07;;;11.27;;
57551;SDS011;43379;48.160;14.036;2023-02-28T05:10:32;14.03;;;11.90;;
57551;SDS011;43379;48.160;14.036;2023-02-28T05:12:58;12.03;;;10.80;;
57551;SDS011;43379;48.160;14.036;2023-02-28T05:15:23;18.00;;;12.53;;
57551;SDS011;43379;48.160;14.036;2023-02-28T05:17:49;16.40;;;11.63;;
57551;SDS011;43379;48.160;14.036;2023-02-28T05:20:15;18.20;;;11.03;;
57551;SDS011;43379;48.160;14.036;2023-02-28T05:22:41;15.90;;;12.50;;
57551;SDS011;43379;48.160;14.036;2023-02-28T05:25:12;14.80;;;11.97;;
57551;SDS011;43379;48.160;14.036;2023-02-28T05:27:41;13.50;;;11.57;;
57551;SDS011;43379;48.160;14.036;2023-02-28T05:30:07;14.50;;;10.90;;
57551;SDS011;43379;48.160;14.036;2023-02-28T05:32:36;17.00;;;12.00;;
57551;SDS011;43379;48.160;14.036;2023-02-28T05:35:02;13.80;;;11.10;;
57551;SDS011;43379;48.160;14.036;2023-02-28T05:37:28;15.07;;;11.70;;
57551;SDS011;43379;48.160;14.036;2023-02-28T05:39:54;15.67;;;11.00;;
57551;SDS011;43379;48.160;14.036;2023-02-28T05:42:20;13.40;;;12.00;;
57551;SDS011;43379;48.160;14.036;2023-02-28T05:44:45;16.40;;;12.37;;
57551;SDS011;43379;48.160;14.036;2023-02-28T05:47:11;15.43;;;12.17;;
57551;SDS011;43379;48.160;14.036;2023-02-28T05:49:40;19.43;;;14.80;;
57551;SDS011;43379;48.160;14.036;2023-02-28T05:52:06;16.13;;;12.23;;
57551;SDS011;43379;48.160;14.036;2023-02-28T05:54:32;15.47;;;12.40;;
57551;SDS011;43379;48.160;14.036;2023-02-28T05:56:57;17.50;;;12.30;;
57551;SDS011;43379;48.160;14.036;2023-02-28T05:59:23;15.50;;;12.50;;
57551;SDS011;43379;48.160;14.036;2023-02-28T06:01:49;13.23;;;11.43;;
57551;SDS011;43379;48.160;14.036;2023-02-28T06:04:15;14.63;;;12.03;;
57551;SDS011;43379;48.160;14.036;2023-02-28T06:06:47;16.33;;;12.33;;
57551;SDS011;43379;48.160;14.036;2023-02-28T06:09:13;16.30;;;12.70;;
57551;SDS011;43379;48.160;14.036;2023-02-28T06:11:39;15.43;;;12.80;;
57551;SDS011;43379;48.160;14.036;2023-02-28T06:14:05;16.40;;;12.40;;
57551;SDS011;43379;48.160;14.036;2023-02-28T06:16:32;14.87;;;13.20;;
57551;SDS011;43379;48.160;14.036;2023-02-28T06:18:59;15.90;;;12.67;;
57551;SDS011;43379;48.160;14.036;2023-02-28T06:21:26;14.50;;;11.40;;
57551;SDS011;43379;48.160;14.036;2023-02-28T06:23:53;15.87;;;13.33;;
57551;SDS011;43379;48.160;14.036;2023-02-28T06:26:20;15.93;;;12.67;;
57551;SDS011;43379;48.160;14.036;2023-02-28T06:28:45;14.30;;;11.90;;
57551;SDS011;43379;48.160;14.036;2023-02-28T06:31:12;16.77;;;12.27;;
57551;SDS011;43379;48.160;14.036;2023-02-28T06:33:40;16.10;;;12.17;;
57551;SDS011;43379;48.160;14.036;2023-02-28T06:36:08;12.03;;;10.83;;
57551;SDS011;43379;48.160;14.036;2023-02-28T06:38:35;13.10;;;11.70;;
57551;SDS011;43379;48.160;14.036;2023-02-28T06:41:01;16.70;;;13.13;;
57551;SDS011;43379;48.160;14.036;2023-02-28T06:43:29;18.70;;;12.80;;
57551;SDS011;43379;48.160;14.036;2023-02-28T06:45:57;13.60;;;12.20;;
57551;SDS011;43379;48.160;14.036;2023-02-28T06:48:25;16.20;;;13.27;;
57551;SDS011;43379;48.160;14.036;2023-02-28T06:50:52;13.23;;;11.83;;
57551;SDS011;43379;48.160;14.036;2023-02-28T06:53:26;14.80;;;11.73;;
57551;SDS011;43379;48.160;14.036;2023-02-28T06:55:51;15.97;;;13.20;;
57551;SDS011;43379;48.160;14.036;2023-02-28T06:58:17;19.60;;;12.77;;
57551;SDS011;43379;48.160;14.036;2023-02-28T07:00:44;14.67;;;12.57;;
57551;SDS011;43379;48.160;14.036;2023-02-28T07:03:10;15.53;;;12.30;;
57551;SDS011;43379;48.160;14.036;2023-02-28T07:05:37;15.90;;;12.70;;
57551;SDS011;43379;48.160;14.036;2023-02-28T07:08:05;15.77;;;12.70;;
57551;SDS011;43379;48.160;14.036;2023-02-28T07:10:31;16.37;;;13.17;;
57551;SDS011;43379;48.160;14.036;2023-02-28T07:12:58;18.37;;;13.93;;
57551;SDS011;43379;48.160;14.036;2023-02-28T07:15:24;14.67;;;12.27;;
57551;SDS011;43379;48.160;14.036;2023-02-28T07:17:50;16.60;;;13.00;;
57551;SDS011;43379;48.160;14.036;2023-02-28T07:20:15;16.70;;;12.60;;
57551;SDS011;43379;48.160;14.036;2023-02-28T07:22:41;14.37;;;12.87;;
57551;SDS011;43379;48.160;14.036;2023-02-28T07:25:07;14.23;;;12.77;;
57551;SDS011;43379;48.160;14.036;2023-02-28T07:27:33;14.07;;;12.57;;
57551;SDS011;43379;48.160;14.036;2023-02-28T07:29:59;14.63;;;13.17;;
57551;SDS011;43379;48.160;14.036;2023-02-28T07:32:28;14.67;;;13.07;;
57551;SDS011;43379;48.160;14.036;2023-02-28T07:34:54;13.90;;;12.50;;
57551;SDS011;43379;48.160;14.036;2023-02-28T07:37:20;15.07;;;13.30;;
57551;SDS011;43379;48.160;14.036;2023-02-28T07:39:45;15.17;;;13.70;;
57551;SDS011;43379;48.160;14.036;2023-02-28T07:42:11;14.10;;;12.70;;
57551;SDS011;43379;48.160;14.036;2023-02-28T07:44:40;14.20;;;12.90;;
57551;SDS011;43379;48.160;14.036;2023-02-28T07:47:08;13.63;;;12.43;;
57551;SDS011;43379;48.160;14.036;2023-02-28T07:49:36;13.63;;;12.47;;
57551;SDS011;43379;48.160;14.036;2023-02-28T07:52:03;15.37;;;14.00;;
57551;SDS011;43379;48.160;14.036;2023-02-28T07:54:30;14.27;;;12.97;;
57551;SDS011;43379;48.160;14.036;2023-02-28T07:56:55;15.33;;;13.80;;
57551;SDS011;43379;48.160;14.036;2023-02-28T07:59:21;15.60;;;14.10;;
57551;SDS011;43379;48.160;14.036;2023-02-28T08:01:47;14.90;;;13.60;;
57551;SDS011;43379;48.160;14.036;2023-02-28T08:04:15;14.30;;;13.10;;
57551;SDS011;43379;48.160;14.036;2023-02-28T08:06:43;14.37;;;13.10;;
57551;SDS011;43379;48.160;14.036;2023-02-28T08:09:09;14.33;;;13.00;;
57551;SDS011;43379;48.160;14.036;2023-02-28T08:11:34;13.77;;;12.60;;
57551;SDS011;43379;48.160;14.036;2023-02-28T08:14:01;14.23;;;13.00;;
57551;SDS011;43379;48.160;14.036;2023-02-28T08:16:27;15.00;;;13.70;;
57551;SDS011;43379;48.160;14.036;2023-02-28T08:18:53;14.23;;;12.93;;
57551;SDS011;43379;48.160;14.036;2023-02-28T08:21:19;14.53;;;13.33;;
57551;SDS011;43379;48.160;14.036;2023-02-28T08:23:46;15.53;;;14.03;;
57551;SDS011;43379;48.160;14.036;2023-02-28T08:26:13;13.23;;;11.87;;
57551;SDS011;43379;48.160;14.036;2023-02-28T08:28:39;15.20;;;13.80;;
57551;SDS011;43379;48.160;14.036;2023-02-28T08:31:12;15.73;;;13.53;;
57551;SDS011;43379;48.160;14.036;2023-02-28T08:33:40;15.57;;;14.30;;
57551;SDS011;43379;48.160;14.036;2023-02-28T08:36:07;14.57;;;13.37;;
57551;SDS011;43379;48.160;14.036;2023-02-28T08:38:34;14.10;;;12.90;;
57551;SDS011;43379;48.160;14.036;2023-02-28T08:41:01;16.40;;;15.00;;
57551;SDS011;43379;48.160;14.036;2023-02-28T08:43:28;15.20;;;13.57;;
57551;SDS011;43379;48.160;14.036;2023-02-28T08:45:55;18.30;;;16.67;;
57551;SDS011;43379;48.160;14.036;2023-02-28T08:48:22;19.13;;;17.53;;
57551;SDS011;43379;48.160;14.036;2023-02-28T08:51:02;17.77;;;16.27;;
57551;SDS011;43379;48.160;14.036;2023-02-28T08:53:36;14.23;;;12.93;;
57551;SDS011;43379;48.160;14.036;2023-02-28T08:56:06;14.67;;;13.37;;
57551;SDS011;43379;48.160;14.036;2023-02-28T08:58:33;14.60;;;13.40;;
57551;SDS011;43379;48.160;14.036;2023-02-28T09:01:00;14.73;;;13.40;;
57551;SDS011;43379;48.160;14.036;2023-02-28T09:03:26;13.77;;;12.67;;
57551;SDS011;43379;48.160;14.036;2023-02-28T09:06:01;13.90;;;12.80;;
57551;SDS011;43379;48.160;14.036;2023-02-28T09:08:27;14.60;;;13.30;;
57551;SDS011;43379;48.160;14.036;2023-02-28T09:10:55;13.60;;;12.50;;
57551;SDS011;43379;48.160;14.036;2023-02-28T09:13:22;13.30;;;12.20;;
57551;SDS011;43379;48.160;14.036;2023-02-28T09:15:49;12.90;;;11.70;;
57551;SDS011;43379;48.160;14.036;2023-02-28T09:18:14;13.70;;;12.50;;
57551;SDS011;43379;48.160;14.036;2023-02-28T09:20:41;15.63;;;13.70;;
57551;SDS011;43379;48.160;14.036;2023-02-28T09:23:07;13.77;;;12.50;;
57551;SDS011;43379;48.160;14.036;2023-02-28T09:25:33;14.00;;;12.83;;
57551;SDS011;43379;48.160;14.036;2023-02-28T09:28:00;14.40;;;13.00;;
57551;SDS011;43379;48.160;14.036;2023-02-28T09:30:25;14.83;;;13.50;;
57551;SDS011;43379;48.160;14.036;2023-02-28T09:32:51;14.60;;;13.30;;
57551;SDS011;43379;48.160;14.036;2023-02-28T09:35:19;14.10;;;12.80;;
57551;SDS011;43379;48.160;14.036;2023-02-28T09:37:46;13.13;;;12.03;;
57551;SDS011;43379;48.160;14.036;2023-02-28T09:40:13;13.40;;;12.20;;
57551;SDS011;43379;48.160;14.036;2023-02-28T09:42:42;13.93;;;12.57;;
57551;SDS011;43379;48.160;14.036;2023-02-28T09:48:01;13.20;;;12.10;;
57551;SDS011;43379;48.160;14.036;2023-02-28T09:53:28;13.10;;;12.00;;
57551;SDS011;43379;48.160;14.036;2023-02-28T09:56:04;14.93;;;13.53;;
57551;SDS011;43379;48.160;14.036;2023-02-28T09:58:37;13.53;;;12.30;;
57551;SDS011;43379;48.160;14.036;2023-02-28T10:06:44;14.00;;;12.80;;
57551;SDS011;43379;48.160;14.036;2023-02-28T10:09:19;13.20;;;11.90;;
57551;SDS011;43379;48.160;14.036;2023-02-28T10:11:50;13.67;;;12.47;;
57551;SDS011;43379;48.160;14.036;2023-02-28T10:14:19;14.60;;;13.40;;
57551;SDS011;43379;48.160;14.036;2023-02-28T10:16:48;14.30;;;13.10;;
57551;SDS011;43379;48.160;14.036;2023-02-28T10:24:43;13.50;;;12.27;;
57551;SDS011;43379;48.160;14.036;2023-02-28T10:27:15;13.20;;;12.00;;
57551;SDS011;43379;48.160;14.036;2023-02-28T10:29:50;14.20;;;12.80;;
57551;SDS011;43379;48.160;14.036;2023-02-28T10:32:22;15.23;;;13.83;;
57551;SDS011;43379;48.160;14.036;2023-02-28T10:35:14;13.90;;;12.70;;
57551;SDS011;43379;48.160;14.036;2023-02-28T10:37:42;13.83;;;12.57;;
57551;SDS011;43379;48.160;14.036;2023-02-28T10:45:52;13.30;;;12.00;;
57551;SDS011;43379;48.160;14.036;2023-02-28T10:48:33;14.47;;;12.97;;
57551;SDS011;43379;48.160;14.036;2023-02-28T10:51:10;13.50;;;12.10;;
57551;SDS011;43379;48.160;14.036;2023-02-28T10:53:45;13.47;;;12.33;;
57551;SDS011;43379;48.160;14.036;2023-02-28T10:56:19;15.07;;;13.47;;
57551;SDS011;43379;48.160;14.036;2023-02-28T10:59:03;15.70;;;12.60;;
57551;SDS011;43379;48.160;14.036;2023-02-28T11:01:47;15.70;;;11.60;;
57551;SDS011;43379;48.160;14.036;2023-02-28T11:06:44;14.83;;;11.83;;
57551;SDS011;43379;48.160;14.036;2023-02-28T11:09:53;13.00;;;11.00;;
57551;SDS011;43379;48.160;14.036;2023-02-28T11:12:07;14.00;;;12.57;;
57551;SDS011;43379;48.160;14.036;2023-02-28T11:14:53;13.10;;;11.47;;
57551;SDS011;43379;48.160;14.036;2023-02-28T11:17:29;12.53;;;11.33;;
57551;SDS011;43379;48.160;14.036;2023-02-28T11:20:01;13.30;;;11.77;;
57551;SDS011;43379;48.160;14.036;2023-02-28T11:22:33;11.07;;;10.00;;
57551;SDS011;43379;48.160;14.036;2023-02-28T11:25:09;11.70;;;10.60;;
57551;SDS011;43379;48.160;14.036;2023-02-28T11:27:54;13.63;;;12.30;;
57551;SDS011;43379;48.160;14.036;2023-02-28T11:30:28;13.10;;;11.37;;
57551;SDS011;43379;48.160;14.036;2023-02-28T11:32:57;11.73;;;10.53;;
57551;SDS011;43379;48.160;14.036;2023-02-28T11:35:28;12.10;;;10.90;;
57551;SDS011;43379;48.160;14.036;2023-02-28T11:37:59;13.80;;;12.40;;
57551;SDS011;43379;48.160;14.036;2023-02-28T11:46:33;13.13;;;11.23;;
57551;SDS011;43379;48.160;14.036;2023-02-28T11:57:26;12.10;;;10.80;;
57551;SDS011;43379;48.160;14.036;2023-02-28T12:03:22;12.93;;;11.70;;
57551;SDS011;43379;48.160;14.036;2023-02-28T12:05:56;13.57;;;10.60;;
57551;SDS011;43379;48.160;14.036;2023-02-28T12:08:29;12.97;;;11.67;;
57551;SDS011;43379;48.160;14.036;2023-02-28T12:16:49;13.20;;;12.00;;
57551;SDS011;43379;48.160;14.036;2023-02-28T12:22:00;10.53;;;8.90;;
57551;SDS011;43379;48.160;14.036;2023-02-28T12:27:26;12.93;;;11.57;;
57551;SDS011;43379;48.160;14.036;2023-02-28T12:30:02;12.17;;;10.73;;
57551;SDS011;43379;48.160;14.036;2023-02-28T12:32:50;12.20;;;11.00;;
57551;SDS011;43379;48.160;14.036;2023-02-28T12:35:48;12.23;;;11.03;;
57551;SDS011;43379;48.160;14.036;2023-02-28T12:38:34;13.37;;;12.07;;
57551;SDS011;43379;48.160;14.036;2023-02-28T12:41:13;11.87;;;10.67;;
57551;SDS011;43379;48.160;14.036;2023-02-28T12:43:57;13.23;;;11.93;;
57551;SDS011;43379;48.160;14.036;2023-02-28T12:46:35;12.13;;;11.03;;
57551;SDS011;43379;48.160;14.036;2023-02-28T12:49:08;13.63;;;12.00;;
57551;SDS011;43379;48.160;14.036;2023-02-28T12:51:40;13.40;;;11.90;;
57551;SDS011;43379;48.160;14.036;2023-02-28T13:10:11;14.10;;;12.70;;
57551;SDS011;43379;48.160;14.036;2023-02-28T13:12:47;14.30;;;12.90;;
57551;SDS011;43379;48.160;14.036;2023-02-28T13:15:19;14.20;;;13.00;;
57551;SDS011;43379;48.160;14.036;2023-02-28T13:18:00;13.57;;;12.20;;
57551;SDS011;43379;48.160;14.036;2023-02-28T13:20:27;13.30;;;11.90;;
57551;SDS011;43379;48.160;14.036;2023-02-28T13:22:59;13.57;;;12.20;;
57551;SDS011;43379;48.160;14.036;2023-02-28T13:28:13;13.70;;;12.30;;
57551;SDS011;43379;48.160;14.036;2023-02-28T13:31:13;12.43;;;11.20;;
57551;SDS011;43379;48.160;14.036;2023-02-28T14:08:49;13.27;;;11.97;;
57551;SDS011;43379;48.160;14.036;2023-02-28T14:11:30;14.53;;;12.63;;
57551;SDS011;43379;48.160;14.036;2023-02-28T14:13:56;14.13;;;11.00;;
57551;SDS011;43379;48.160;14.036;2023-02-28T14:16:26;14.30;;;12.90;;
57551;SDS011;43379;48.160;14.036;2023-02-28T14:21:58;15.63;;;13.20;;
57551;SDS011;43379;48.160;14.036;2023-02-28T14:30:51;14.00;;;12.60;;
57551;SDS011;43379;48.160;14.036;2023-02-28T14:36:32;12.60;;;11.30;;
57551;SDS011;43379;48.160;14.036;2023-02-28T14:39:03;18.70;;;13.30;;
57551;SDS011;43379;48.160;14.036;2023-02-28T14:41:33;13.00;;;11.70;;
57551;SDS011;43379;48.160;14.036;2023-02-28T14:44:02;14.07;;;12.13;;
57551;SDS011;43379;48.160;14.036;2023-02-28T14:46:49;14.93;;;13.50;;
57551;SDS011;43379;48.160;14.036;2023-02-28T14:49:32;14.03;;;12.60;;
57551;SDS011;43379;48.160;14.036;2023-02-28T14:52:01;15.93;;;13.40;;
57551;SDS011;43379;48.160;14.036;2023-02-28T14:54:35;14.63;;;13.00;;
57551;SDS011;43379;48.160;14.036;2023-02-28T14:57:02;15.23;;;12.73;;
57551;SDS011;43379;48.160;14.036;2023-02-28T14:59:32;14.47;;;12.97;;
57551;SDS011;43379;48.160;14.036;2023-02-28T15:04:55;17.27;;;15.47;;
57551;SDS011;43379;48.160;14.036;2023-02-28T15:07:22;17.13;;;13.27;;
57551;SDS011;43379;48.160;14.036;2023-02-28T15:12:47;18.87;;;15.00;;
57551;SDS011;43379;48.160;14.036;2023-02-28T15:15:17;15.77;;;13.30;;
57551;SDS011;43379;48.160;14.036;2023-02-28T15:17:45;15.07;;;13.47;;
57551;SDS011;43379;48.160;14.036;2023-02-28T15:20:18;14.43;;;12.70;;
57551;SDS011;43379;48.160;14.036;2023-02-28T15:22:44;15.87;;;14.17;;
57551;SDS011;43379;48.160;14.036;2023-02-28T15:25:13;19.33;;;13.07;;
57551;SDS011;43379;48.160;14.036;2023-02-28T15:27:45;18.23;;;15.57;;
57551;SDS011;43379;48.160;14.036;2023-02-28T15:30:15;15.20;;;13.73;;
57551;SDS011;43379;48.160;14.036;2023-02-28T15:35:36;16.20;;;14.33;;
57551;SDS011;43379;48.160;14.036;2023-02-28T15:38:03;20.23;;;14.93;;
57551;SDS011;43379;48.160;14.036;2023-02-28T15:40:53;18.77;;;16.30;;
57551;SDS011;43379;48.160;14.036;2023-02-28T15:43:30;17.60;;;15.67;;
57551;SDS011;43379;48.160;14.036;2023-02-28T15:46:01;16.33;;;14.70;;
57551;SDS011;43379;48.160;14.036;2023-02-28T15:48:52;18.30;;;15.97;;
57551;SDS011;43379;48.160;14.036;2023-02-28T15:51:40;16.90;;;15.30;;
57551;SDS011;43379;48.160;14.036;2023-02-28T15:54:06;17.50;;;15.60;;
57551;SDS011;43379;48.160;14.036;2023-02-28T15:56:34;18.77;;;16.53;;
57551;SDS011;43379;48.160;14.036;2023-02-28T15:59:07;18.07;;;15.53;;
57551;SDS011;43379;48.160;14.036;2023-02-28T16:01:40;19.67;;;17.60;;
57551;SDS011;43379;48.160;14.036;2023-02-28T16:04:15;16.90;;;15.17;;
57551;SDS011;43379;48.160;14.036;2023-02-28T16:06:44;16.23;;;14.63;;
57551;SDS011;43379;48.160;14.036;2023-02-28T16:09:29;18.93;;;16.30;;
57551;SDS011;43379;48.160;14.036;2023-02-28T16:11:56;17.73;;;15.90;;
57551;SDS011;43379;48.160;14.036;2023-02-28T16:14:29;18.70;;;16.33;;
57551;SDS011;43379;48.160;14.036;2023-02-28T16:17:03;21.00;;;16.50;;
57551;SDS011;43379;48.160;14.036;2023-02-28T16:19:45;18.73;;;16.73;;
57551;SDS011;43379;48.160;14.036;2023-02-28T16:22:11;18.80;;;16.77;;
57551;SDS011;43379;48.160;14.036;2023-02-28T16:24:36;19.30;;;16.67;;
57551;SDS011;43379;48.160;14.036;2023-02-28T16:27:03;20.27;;;17.47;;
57551;SDS011;43379;48.160;14.036;2023-02-28T16:29:31;19.93;;;17.33;;
57551;SDS011;43379;48.160;14.036;2023-02-28T16:32:00;17.13;;;15.30;;
57551;SDS011;43379;48.160;14.036;2023-02-28T16:34:26;16.53;;;14.80;;
57551;SDS011;43379;48.160;14.036;2023-02-28T16:36:52;19.87;;;16.77;;
57551;SDS011;43379;48.160;14.036;2023-02-28T16:39:18;18.60;;;15.10;;
57551;SDS011;43379;48.160;14.036;2023-02-28T16:41:47;17.57;;;15.70;;
57551;SDS011;43379;48.160;14.036;2023-02-28T16:44:28;17.33;;;15.60;;
57551;SDS011;43379;48.160;14.036;2023-02-28T16:47:02;17.10;;;15.60;;
57551;SDS011;43379;48.160;14.036;2023-02-28T16:49:29;16.80;;;14.60;;
57551;SDS011;43379;48.160;14.036;2023-02-28T16:51:55;16.43;;;14.77;;
57551;SDS011;43379;48.160;14.036;2023-02-28T16:54:20;16.83;;;15.07;;
57551;SDS011;43379;48.160;14.036;2023-02-28T16:56:47;18.23;;;16.03;;
57551;SDS011;43379;48.160;14.036;2023-02-28T16:59:13;20.13;;;16.17;;
57551;SDS011;43379;48.160;14.036;2023-02-28T17:01:43;19.30;;;17.23;;
57551;SDS011;43379;48.160;14.036;2023-02-28T17:04:10;17.97;;;16.07;;
57551;SDS011;43379;48.160;14.036;2023-02-28T17:06:36;17.43;;;15.73;;
57551;SDS011;43379;48.160;14.036;2023-02-28T17:09:02;19.07;;;16.87;;
57551;SDS011;43379;48.160;14.036;2023-02-28T17:11:28;16.50;;;14.90;;
57551;SDS011;43379;48.160;14.036;2023-02-28T17:13:54;17.37;;;15.57;;
57551;SDS011;43379;48.160;14.036;2023-02-28T17:16:22;19.23;;;16.10;;
57551;SDS011;43379;48.160;14.036;2023-02-28T17:18:59;17.87;;;15.97;;
57551;SDS011;43379;48.160;14.036;2023-02-28T17:21:27;20.70;;;15.00;;